Time;durP1;ratioP1;P1;durP2;ratioP2;P2;SDS_P1;SDS_P2;PMS_P1;PMS_P2;Temp;Humidity;BMP_temperature;BMP_pressure;BME280_temperature;BME280_humidity;BME280_pressure;Samples;Min_cycle;Max_cycle;Signal;HPM_P1;HPM_P2
2022/05/04 00:00:11;;;;;;;6.90;5.97;;;14.30;99.90;;;;;;5076611;28;20194;-67
2022/05/04 00:02:39;;;;;;;7.30;5.90;;;14.10;99.90;;;;;;5078962;28;20194;-66
2022/05/04 00:05:07;;;;;;;10.13;6.17;;;14.00;99.90;;;;;;5079628;28;20215;-66
2022/05/04 00:07:35;;;;;;;7.63;5.53;;;13.90;99.90;;;;;;5074989;28;20590;-67
2022/05/04 00:10:03;;;;;;;10.83;6.23;;;13.90;99.90;;;;;;5074072;28;20685;-66
2022/05/04 00:12:31;;;;;;;9.40;6.30;;;13.80;99.90;;;;;;5071513;28;20200;-66
2022/05/04 00:14:57;;;;;;;8.03;6.30;;;14.00;99.90;;;;;;5073832;28;20323;-66
2022/05/04 00:17:24;;;;;;;7.87;6.33;;;14.10;99.90;;;;;;5074291;28;20192;-66
2022/05/04 00:19:51;;;;;;;7.50;5.93;;;14.10;99.90;;;;;;5072522;28;20601;-66
2022/05/04 00:22:20;;;;;;;7.70;5.60;;;14.10;99.90;;;;;;5080427;28;20192;-67
2022/05/04 00:24:47;;;;;;;8.37;5.70;;;14.20;99.90;;;;;;5076494;28;20219;-66
2022/05/04 00:27:15;;;;;;;7.60;5.93;;;14.20;99.90;;;;;;5075848;28;20201;-67
2022/05/04 00:29:46;;;;;;;8.53;5.57;;;14.40;99.90;;;;;;5079999;28;20655;-66
2022/05/04 00:32:14;;;;;;;9.27;5.50;;;14.40;99.90;;;;;;5089398;28;20218;-66
2022/05/04 00:34:41;;;;;;;9.57;5.83;;;14.40;99.90;;;;;;5073488;28;20232;-66
2022/05/04 00:37:07;;;;;;;6.40;5.13;;;14.50;99.90;;;;;;5074613;28;20193;-66
2022/05/04 00:39:34;;;;;;;9.00;5.20;;;14.40;99.90;;;;;;5072184;28;20544;-66
2022/05/04 00:42:16;;;;;;;10.23;5.97;;;14.40;99.90;;;;;;5072232;28;20230;-66
2022/05/04 00:44:45;;;;;;;8.10;5.60;;;14.40;99.90;;;;;;5071011;28;20711;-66
2022/05/04 00:47:12;;;;;;;7.73;5.67;;;14.40;99.90;;;;;;5072208;28;20198;-68
2022/05/04 00:49:40;;;;;;;8.80;5.63;;;14.40;99.90;;;;;;5071958;28;20205;-69
2022/05/04 00:52:08;;;;;;;11.37;5.80;;;14.40;99.90;;;;;;5076370;28;20224;-68
2022/05/04 00:54:36;;;;;;;7.63;5.37;;;14.30;99.90;;;;;;5074495;28;20221;-68
2022/05/04 00:57:04;;;;;;;7.57;5.80;;;14.40;99.90;;;;;;5069781;28;20198;-68
2022/05/04 00:59:31;;;;;;;7.20;5.33;;;14.40;99.90;;;;;;5077236;28;20644;-68
2022/05/04 01:01:59;;;;;;;7.27;5.30;;;14.40;99.90;;;;;;5070579;28;20596;-68
2022/05/04 01:04:26;;;;;;;7.47;5.53;;;14.30;99.90;;;;;;5072514;28;20655;-68
2022/05/04 01:06:53;;;;;;;9.93;5.57;;;14.20;99.90;;;;;;5076451;28;20219;-68
2022/05/04 01:09:18;;;;;;;7.40;5.20;;;14.20;99.90;;;;;;5077843;28;20974;-67
2022/05/04 01:11:46;;;;;;;11.37;5.47;;;14.10;99.90;;;;;;5073056;28;20232;-68
2022/05/04 01:14:13;;;;;;;6.50;5.33;;;14.00;99.90;;;;;;5071201;28;20289;-68
2022/05/04 01:16:46;;;;;;;6.37;5.30;;;14.00;99.90;;;;;;5072401;28;20202;-67
2022/05/04 01:19:13;;;;;;;6.90;5.23;;;13.90;99.90;;;;;;5078384;28;20274;-68
2022/05/04 01:21:40;;;;;;;7.00;5.20;;;13.90;99.90;;;;;;5070751;28;20201;-67
2022/05/04 01:24:08;;;;;;;6.50;5.10;;;13.90;99.90;;;;;;5071289;28;20221;-67
2022/05/04 01:26:34;;;;;;;7.17;5.27;;;13.80;99.90;;;;;;5072857;28;20201;-68
2022/05/04 01:29:01;;;;;;;8.70;5.63;;;13.80;99.90;;;;;;5072042;28;20580;-69
2022/05/04 01:31:28;;;;;;;6.90;5.17;;;13.70;99.90;;;;;;5074009;28;20715;-69
2022/05/04 01:33:55;;;;;;;7.67;5.43;;;13.70;99.90;;;;;;5074865;28;20767;-68
2022/05/04 01:36:22;;;;;;;7.40;5.50;;;13.70;99.90;;;;;;5071887;28;20205;-69
2022/05/04 01:38:48;;;;;;;8.63;5.67;;;13.70;99.90;;;;;;5074328;28;20188;-69
2022/05/04 01:44:14;;;;;;;7.57;5.33;;;13.70;99.90;;;;;;5062738;28;20323;-69
2022/05/04 01:46:40;;;;;;;8.67;5.43;;;13.60;99.90;;;;;;5072220;28;20205;-68
2022/05/04 01:49:07;;;;;;;7.97;5.70;;;13.60;99.90;;;;;;5078874;28;20197;-67
2022/05/04 01:51:34;;;;;;;7.70;5.33;;;13.60;99.90;;;;;;5070183;28;20220;-68
2022/05/04 01:54:00;;;;;;;7.50;4.90;;;13.60;99.90;;;;;;5073859;28;20227;-69
2022/05/04 01:56:27;;;;;;;6.80;5.40;;;13.60;99.90;;;;;;5070896;28;20194;-68
2022/05/04 01:58:54;;;;;;;5.87;5.03;;;13.60;99.90;;;;;;5068963;28;20564;-67
2022/05/04 02:01:20;;;;;;;6.43;5.10;;;13.60;99.90;;;;;;5071103;28;20581;-66
2022/05/04 02:03:47;;;;;;;6.80;5.20;;;13.60;99.90;;;;;;5075357;28;20218;-66
2022/05/04 02:06:15;;;;;;;8.07;5.07;;;13.50;99.90;;;;;;5071423;28;20234;-67
2022/05/04 02:08:42;;;;;;;7.70;5.23;;;13.50;99.90;;;;;;5077926;28;20199;-67
2022/05/04 02:11:09;;;;;;;5.77;5.00;;;13.60;99.90;;;;;;5068497;28;20220;-68
2022/05/04 02:13:35;;;;;;;6.77;5.00;;;13.60;99.90;;;;;;5071957;28;20432;-68
2022/05/04 02:16:03;;;;;;;10.30;5.60;;;13.60;99.90;;;;;;5077562;28;20210;-67
2022/05/04 02:18:30;;;;;;;9.17;5.73;;;13.60;99.90;;;;;;5077531;28;20903;-68
2022/05/04 02:20:56;;;;;;;7.80;5.57;;;13.60;99.90;;;;;;5076585;28;20200;-67
2022/05/04 02:23:23;;;;;;;6.97;5.37;;;13.70;99.90;;;;;;5072231;28;20197;-66
2022/05/04 02:25:50;;;;;;;7.77;5.17;;;13.70;99.90;;;;;;5074987;28;20195;-66
2022/05/04 02:28:17;;;;;;;8.00;5.70;;;13.70;99.90;;;;;;5071701;28;20201;-67
2022/05/04 02:30:44;;;;;;;7.27;4.93;;;13.70;99.90;;;;;;5073395;28;20725;-66
2022/05/04 02:33:13;;;;;;;6.90;5.37;;;13.60;99.90;;;;;;5077707;28;20208;-67
2022/05/04 02:38:25;;;;;;;7.47;5.30;;;13.70;99.90;;;;;;5070294;28;20220;-68
2022/05/04 02:40:51;;;;;;;9.60;5.03;;;13.70;99.90;;;;;;5076519;28;20201;-67
2022/05/04 02:43:18;;;;;;;8.90;5.50;;;13.60;99.90;;;;;;5075415;28;20201;-69
2022/05/04 02:45:45;;;;;;;6.83;5.00;;;13.70;99.90;;;;;;5079270;28;20198;-69
2022/05/04 02:48:12;;;;;;;7.10;5.63;;;13.60;99.90;;;;;;5076305;28;20196;-68
2022/05/04 02:50:38;;;;;;;6.90;4.70;;;13.60;99.90;;;;;;5075567;28;20656;-67
2022/05/04 02:53:05;;;;;;;6.20;5.23;;;13.50;99.90;;;;;;5074174;28;20221;-67
2022/05/04 02:55:32;;;;;;;7.07;5.37;;;13.50;99.90;;;;;;5078936;28;20227;-67
2022/05/04 02:58:00;;;;;;;7.00;4.90;;;13.40;99.90;;;;;;5072764;28;20682;-69
2022/05/04 03:00:27;;;;;;;10.87;4.83;;;13.40;99.90;;;;;;5073794;28;20197;-67
2022/05/04 03:02:54;;;;;;;7.07;5.30;;;13.20;99.90;;;;;;5075236;28;20200;-67
2022/05/04 03:05:22;;;;;;;7.47;5.30;;;13.20;99.90;;;;;;5078505;28;20225;-67
2022/05/04 03:07:48;;;;;;;8.17;5.20;;;13.20;99.90;;;;;;5077346;28;20209;-67
2022/05/04 03:10:16;;;;;;;7.47;5.17;;;13.10;99.90;;;;;;5078297;28;20213;-68
2022/05/04 03:12:43;;;;;;;7.80;5.13;;;13.10;99.90;;;;;;5076239;28;20702;-68
2022/05/04 03:15:11;;;;;;;8.00;5.83;;;13.10;99.90;;;;;;5077029;28;20217;-68
2022/05/04 03:17:37;;;;;;;9.73;5.63;;;13.00;99.90;;;;;;5078445;28;20199;-67
2022/05/04 03:20:05;;;;;;;7.27;5.60;;;13.10;99.90;;;;;;5075824;28;20275;-67
2022/05/04 03:22:32;;;;;;;7.00;5.27;;;13.10;99.90;;;;;;5087078;28;20560;-68
2022/05/04 03:24:59;;;;;;;7.30;5.30;;;13.00;99.90;;;;;;5086598;28;20220;-68
2022/05/04 03:27:26;;;;;;;7.57;5.60;;;13.00;99.90;;;;;;5076388;28;20198;-69
2022/05/04 03:29:52;;;;;;;7.10;5.20;;;12.90;99.90;;;;;;5074262;28;20218;-67
2022/05/04 03:32:20;;;;;;;6.93;5.07;;;12.90;99.90;;;;;;5077045;28;20245;-68
2022/05/04 03:34:47;;;;;;;8.20;5.93;;;12.80;99.90;;;;;;5071783;28;20217;-67
2022/05/04 03:37:14;;;;;;;10.53;6.13;;;12.90;99.90;;;;;;5075496;28;20200;-69
2022/05/04 03:39:41;;;;;;;9.57;6.43;;;12.70;99.90;;;;;;5073094;28;20201;-69
2022/05/04 03:42:08;;;;;;;8.47;5.53;;;12.80;99.90;;;;;;5073452;28;20207;-69
2022/05/04 03:44:34;;;;;;;8.60;5.93;;;12.90;99.90;;;;;;5083132;28;20218;-70
2022/05/04 03:47:01;;;;;;;9.40;6.03;;;12.90;99.90;;;;;;5074353;28;20197;-70
2022/05/04 03:49:28;;;;;;;9.87;6.33;;;12.90;99.90;;;;;;5078836;28;20197;-68
2022/05/04 03:51:56;;;;;;;10.00;6.33;;;13.00;99.90;;;;;;5074898;28;20232;-67
2022/05/04 03:54:22;;;;;;;9.27;5.80;;;12.90;99.90;;;;;;5076334;28;20238;-68
2022/05/04 03:56:49;;;;;;;8.30;5.50;;;12.90;99.90;;;;;;5075899;28;20603;-70
2022/05/04 03:59:16;;;;;;;8.20;5.80;;;12.90;99.90;;;;;;5075822;28;20190;-69
2022/05/04 04:01:42;;;;;;;7.77;5.70;;;12.80;99.90;;;;;;5074087;28;20678;-68
2022/05/04 04:04:09;;;;;;;10.17;6.00;;;12.80;99.90;;;;;;5078160;28;20560;-68
2022/05/04 04:06:36;;;;;;;11.00;5.90;;;12.80;99.90;;;;;;5072213;28;20198;-67
2022/05/04 04:09:03;;;;;;;7.53;5.73;;;12.90;99.90;;;;;;5070391;28;20207;-68
2022/05/04 04:11:31;;;;;;;9.77;6.00;;;13.00;99.90;;;;;;5074708;28;20634;-68
2022/05/04 04:13:58;;;;;;;10.90;6.20;;;13.10;99.90;;;;;;5085087;28;20222;-67
2022/05/04 04:16:25;;;;;;;8.53;6.20;;;13.00;99.90;;;;;;5074694;28;20210;-67
2022/05/04 04:18:52;;;;;;;8.43;5.73;;;13.00;99.90;;;;;;5083372;28;20212;-67
2022/05/04 04:24:04;;;;;;;8.07;5.70;;;12.90;99.90;;;;;;5075652;28;20216;-68
2022/05/04 04:26:32;;;;;;;7.87;5.73;;;13.00;99.90;;;;;;5080816;28;20205;-66
2022/05/04 04:28:58;;;;;;;10.17;6.97;;;13.10;99.90;;;;;;5074624;28;20190;-67
2022/05/04 04:31:25;;;;;;;27.67;6.73;;;13.20;99.90;;;;;;5069667;28;20199;-68
2022/05/04 04:33:52;;;;;;;11.23;6.40;;;13.30;99.90;;;;;;5074391;28;20218;-68
2022/05/04 04:36:19;;;;;;;10.07;5.97;;;13.30;99.90;;;;;;5078643;28;20189;-69
2022/05/04 04:38:45;;;;;;;11.97;6.03;;;13.30;99.90;;;;;;5073548;28;20190;-68
2022/05/04 04:41:13;;;;;;;11.43;6.53;;;13.40;99.90;;;;;;5077291;28;20200;-67
2022/05/04 04:43:39;;;;;;;8.33;6.00;;;13.30;99.90;;;;;;5082161;28;20252;-67
2022/05/04 04:46:06;;;;;;;10.33;6.33;;;13.30;99.90;;;;;;5088049;28;20588;-68
2022/05/04 04:48:33;;;;;;;9.70;6.23;;;13.30;99.90;;;;;;5077016;28;20254;-69
2022/05/04 04:51:00;;;;;;;8.63;5.97;;;13.40;99.90;;;;;;5082069;28;20805;-66
2022/05/04 04:53:26;;;;;;;9.63;5.70;;;13.40;99.90;;;;;;5075360;28;20723;-67
2022/05/04 04:55:53;;;;;;;8.27;6.10;;;13.40;99.90;;;;;;5081755;28;20208;-68
2022/05/04 04:58:20;;;;;;;9.17;6.37;;;13.40;99.90;;;;;;5080016;28;20357;-68
2022/05/04 05:00:47;;;;;;;7.33;5.80;;;13.30;99.90;;;;;;5087364;28;20558;-67
2022/05/04 05:03:14;;;;;;;9.67;6.10;;;13.30;99.90;;;;;;5082131;28;20205;-68
2022/05/04 05:05:42;;;;;;;8.33;5.83;;;13.40;99.90;;;;;;5080089;28;20305;-66
2022/05/04 05:08:10;;;;;;;8.33;6.07;;;13.40;99.90;;;;;;5070438;28;20216;-67
2022/05/04 05:10:38;;;;;;;10.13;6.27;;;13.50;99.90;;;;;;5074590;28;20213;-68
2022/05/04 05:13:05;;;;;;;9.30;6.47;;;13.60;99.90;;;;;;5080784;28;20216;-69
2022/05/04 05:18:20;;;;;;;7.97;5.90;;;13.50;99.90;;;;;;5069298;28;20226;-68
2022/05/04 05:20:47;;;;;;;9.63;6.57;;;13.60;99.90;;;;;;5076113;28;20694;-67
2022/05/04 05:23:21;;;;;;;9.77;6.33;;;13.70;99.90;;;;;;5069682;28;20653;-66
2022/05/04 05:25:47;;;;;;;8.77;6.00;;;13.60;99.90;;;;;;5070266;28;20657;-66
2022/05/04 05:28:14;;;;;;;9.63;6.37;;;13.60;99.90;;;;;;5068851;28;20192;-68
2022/05/04 05:30:42;;;;;;;9.03;6.20;;;13.60;99.90;;;;;;5073848;28;20194;-68
2022/05/04 05:33:09;;;;;;;10.50;6.03;;;13.70;99.90;;;;;;5077064;28;20205;-67
2022/05/04 05:35:36;;;;;;;10.53;6.77;;;13.80;99.90;;;;;;5071449;28;20218;-66
2022/05/04 05:38:03;;;;;;;8.67;6.47;;;13.80;99.90;;;;;;5070241;28;20594;-67
2022/05/04 05:40:29;;;;;;;7.73;6.17;;;13.80;99.90;;;;;;5073266;28;20560;-69
2022/05/04 05:42:56;;;;;;;9.43;6.33;;;13.90;99.90;;;;;;5077015;28;20206;-66
2022/05/04 05:45:23;;;;;;;8.97;6.37;;;14.00;99.90;;;;;;5064936;28;20225;-65
2022/05/04 05:47:49;;;;;;;8.77;6.27;;;14.00;99.90;;;;;;5083569;28;20202;-66
2022/05/04 05:50:17;;;;;;;10.17;6.30;;;14.10;99.90;;;;;;5081590;28;20192;-66
2022/05/04 05:52:44;;;;;;;8.90;6.10;;;14.10;99.90;;;;;;5071176;28;20260;-66
2022/05/04 05:55:11;;;;;;;10.63;6.07;;;14.20;99.90;;;;;;5068850;28;20220;-65
2022/05/04 05:57:37;;;;;;;10.00;6.10;;;14.40;99.90;;;;;;5076444;28;20197;-67
2022/05/04 06:00:05;;;;;;;9.07;6.30;;;14.60;99.90;;;;;;5070727;28;20202;-67
2022/05/04 06:02:33;;;;;;;9.70;6.10;;;14.60;99.90;;;;;;5068286;28;20195;-65
2022/05/04 06:05:00;;;;;;;8.97;5.70;;;14.70;99.90;;;;;;5070779;28;20229;-67
2022/05/04 06:07:27;;;;;;;10.73;6.13;;;14.80;99.90;;;;;;5096857;28;20210;-66
2022/05/04 06:09:54;;;;;;;8.37;5.87;;;15.00;99.90;;;;;;5079626;28;20209;-65
2022/05/04 06:12:21;;;;;;;8.90;5.53;;;15.20;99.90;;;;;;5097542;28;20228;-65
2022/05/04 06:14:48;;;;;;;8.50;6.10;;;15.50;99.90;;;;;;5093382;28;20212;-65
2022/05/04 06:17:15;;;;;;;8.57;6.30;;;15.60;99.90;;;;;;5091513;28;20201;-65
2022/05/04 06:19:42;;;;;;;9.77;6.37;;;15.60;99.90;;;;;;5099571;28;20200;-65
2022/05/04 06:22:08;;;;;;;9.20;5.93;;;15.60;99.90;;;;;;5096055;28;20216;-64
2022/05/04 06:24:35;;;;;;;8.03;6.30;;;15.60;99.90;;;;;;5096604;28;20223;-64
2022/05/04 06:27:02;;;;;;;8.50;5.93;;;15.70;99.90;;;;;;5100018;28;20196;-65
2022/05/04 06:35:04;;;;;;;8.80;5.80;;;15.90;99.90;;;;;;5100626;28;20613;-64
2022/05/04 06:37:31;;;;;;;11.50;5.73;;;16.00;99.90;;;;;;5099927;28;20201;-64
2022/05/04 06:39:58;;;;;;;7.93;5.70;;;16.20;99.90;;;;;;5096123;28;20193;-64
2022/05/04 06:42:25;;;;;;;7.87;6.10;;;16.50;99.90;;;;;;5101201;28;20205;-65
2022/05/04 06:44:54;;;;;;;10.17;5.83;;;16.70;99.90;;;;;;5095650;28;20219;-64
2022/05/04 06:47:21;;;;;;;8.60;5.87;;;16.90;99.90;;;;;;5096370;28;20251;-65
2022/05/04 06:49:47;;;;;;;10.90;5.90;;;17.00;99.90;;;;;;5093605;28;20208;-65
2022/05/04 06:52:15;;;;;;;9.73;5.70;;;17.00;99.90;;;;;;5099299;28;20226;-65
2022/05/04 06:54:42;;;;;;;12.87;6.63;;;17.10;99.90;;;;;;5100165;28;20243;-65
2022/05/04 06:57:09;;;;;;;11.77;6.83;;;17.20;99.90;;;;;;5101036;28;20200;-65
2022/05/04 06:59:36;;;;;;;11.30;6.90;;;17.20;99.90;;;;;;5099731;28;20220;-65
2022/05/04 07:02:03;;;;;;;11.80;7.00;;;17.10;99.90;;;;;;5100961;28;20201;-64
2022/05/04 07:04:29;;;;;;;11.20;6.90;;;17.00;99.90;;;;;;5101058;28;20224;-64
2022/05/04 07:06:56;;;;;;;12.57;6.73;;;16.90;99.90;;;;;;5100350;28;20202;-64
2022/05/04 07:09:23;;;;;;;11.90;6.93;;;17.10;99.90;;;;;;5098454;28;20205;-65
2022/05/04 07:11:50;;;;;;;12.73;6.60;;;17.20;99.90;;;;;;5099733;28;20573;-64
2022/05/04 07:14:16;;;;;;;19.60;8.30;;;17.30;99.90;;;;;;5099568;28;20231;-65
2022/05/04 07:16:43;;;;;;;13.20;7.60;;;17.30;99.90;;;;;;5098926;28;20192;-65
2022/05/04 07:19:13;;;;;;;21.73;7.80;;;17.30;99.90;;;;;;5100517;28;20200;-64
2022/05/04 07:21:42;;;;;;;17.90;7.63;;;17.50;99.90;;;;;;5098078;28;20197;-65
2022/05/04 07:24:09;;;;;;;13.47;7.77;;;17.70;99.90;;;;;;5101077;28;21153;-66
2022/05/04 07:26:36;;;;;;;12.03;6.13;;;17.90;99.90;;;;;;5101284;28;20215;-67
2022/05/04 07:29:02;;;;;;;13.83;6.60;;;18.20;99.90;;;;;;5104467;28;20204;-67
2022/05/04 07:31:29;;;;;;;14.57;7.10;;;18.50;99.90;;;;;;5099962;28;20201;-67
2022/05/04 07:33:56;;;;;;;8.53;5.47;;;19.00;99.90;;;;;;5101155;28;20264;-67
2022/05/04 07:36:23;;;;;;;9.97;5.80;;;19.30;99.90;;;;;;5099088;28;20219;-66
2022/05/04 07:38:50;;;;;;;9.80;5.63;;;19.60;99.90;;;;;;5104115;28;20196;-67
2022/05/04 07:44:02;;;;;;;7.13;5.20;;;20.10;99.90;;;;;;5102774;28;20212;-67
2022/05/04 07:46:29;;;;;;;8.23;5.83;;;20.20;99.90;;;;;;5102849;28;20212;-69
2022/05/04 07:48:56;;;;;;;6.70;5.27;;;20.60;99.90;;;;;;5101916;28;20431;-67
2022/05/04 07:51:22;;;;;;;11.00;6.20;;;20.80;99.90;;;;;;5103308;28;20197;-65
2022/05/04 07:53:49;;;;;;;7.40;5.70;;;21.00;99.90;;;;;;5103240;28;20232;-65
2022/05/04 07:56:16;;;;;;;8.68;5.55;;;20.80;99.90;;;;;;5099311;28;20200;-65
2022/05/04 07:58:43;;;;;;;8.55;5.70;;;20.80;99.90;;;;;;5099284;28;20650;-65
2022/05/04 08:06:40;;;;;;;13.35;6.05;;;21.00;99.90;;;;;;5099217;28;20658;-65
2022/05/04 08:09:07;;;;;;;8.82;5.47;;;21.20;99.90;;;;;;5101891;28;20193;-65
2022/05/04 08:11:34;;;;;;;9.23;5.40;;;21.50;99.90;;;;;;5098200;28;20680;-66
2022/05/04 08:14:00;;;;;;;8.38;5.47;;;21.50;99.90;;;;;;5098740;28;21110;-65
2022/05/04 08:16:27;;;;;;;11.98;5.53;;;21.50;99.90;;;;;;5097815;28;20193;-65
2022/05/04 08:18:54;;;;;;;8.10;5.60;;;21.30;99.90;;;;;;5096246;28;20289;-65
2022/05/04 08:21:20;;;;;;;9.52;5.28;;;21.40;99.90;;;;;;5098846;28;20652;-65
2022/05/04 08:23:47;;;;;;;10.95;6.03;;;21.60;99.90;;;;;;5099037;28;21568;-65
2022/05/04 08:26:19;;;;;;;12.05;5.93;;;21.70;99.90;;;;;;5101471;28;20235;-65
2022/05/04 08:28:46;;;;;;;7.55;5.10;;;21.60;99.90;;;;;;5098838;28;20563;-65
2022/05/04 08:31:14;;;;;;;7.00;5.43;;;21.60;99.90;;;;;;5101026;28;20212;-65
2022/05/04 08:33:41;;;;;;;6.93;5.00;;;21.70;99.90;;;;;;5099119;28;20309;-65
2022/05/04 08:36:08;;;;;;;9.20;5.82;;;21.90;99.90;;;;;;5100537;28;20201;-65
2022/05/04 08:38:35;;;;;;;9.13;5.32;;;21.80;99.90;;;;;;5098531;28;20201;-65
2022/05/04 08:41:02;;;;;;;10.52;5.47;;;21.40;99.90;;;;;;5099546;28;20193;-65
2022/05/04 08:43:32;;;;;;;9.32;5.30;;;21.30;99.90;;;;;;5099035;28;20197;-65
2022/05/04 08:46:01;;;;;;;8.27;5.50;;;21.10;99.90;;;;;;5093647;28;20589;-65
2022/05/04 08:48:30;;;;;;;9.02;6.05;;;20.80;99.90;;;;;;5091946;28;20229;-65
2022/05/04 08:51:00;;;;;;;10.75;6.18;;;20.10;99.90;;;;;;5092251;28;20441;-65
2022/05/04 08:53:27;;;;;;;9.87;6.33;;;19.50;99.90;;;;;;5095439;28;20209;-65
2022/05/04 08:55:54;;;;;;;11.10;7.03;;;19.00;99.90;;;;;;5093779;28;20578;-65
2022/05/04 08:58:21;;;;;;;7.50;5.90;;;18.90;99.90;;;;;;5090130;28;20197;-65
2022/05/04 09:00:47;;;;;;;8.47;6.13;;;19.20;99.90;;;;;;5090736;28;20280;-65
2022/05/04 09:03:14;;;;;;;14.33;6.40;;;19.50;99.90;;;;;;5092541;28;20204;-64
2022/05/04 09:05:46;;;;;;;7.73;6.00;;;19.60;99.90;;;;;;5099354;28;20220;-65
2022/05/04 09:08:52;;;;;;;7.97;6.13;;;19.80;99.90;;;;;;5094235;28;20220;-64
2022/05/04 09:11:21;;;;;;;9.20;5.97;;;20.20;99.90;;;;;;5091970;28;21055;-65
2022/05/04 09:13:49;;;;;;;9.37;6.33;;;20.30;99.90;;;;;;5094042;28;20221;-68
2022/05/04 09:16:27;;;;;;;9.00;5.63;;;20.30;99.90;;;;;;5087296;28;20205;-70
2022/05/04 09:18:54;;;;;;;9.27;6.47;;;20.40;99.90;;;;;;5091453;28;20196;-67
2022/05/04 09:21:22;;;;;;;10.70;5.60;;;20.70;99.90;;;;;;5092573;28;20195;-67
2022/05/04 09:23:52;;;;;;;10.15;6.60;;;21.00;99.90;;;;;;5098892;28;20228;-67
2022/05/04 09:26:20;;;;;;;10.60;6.20;;;21.10;99.90;;;;;;5097849;28;20204;-64
2022/05/04 09:28:52;;;;;;;10.85;7.10;;;21.00;99.90;;;;;;5098387;28;20192;-65
2022/05/04 09:31:25;;;;;;;7.20;5.82;;;20.80;99.90;;;;;;5099339;28;20201;-64
2022/05/04 09:34:02;;;;;;;10.13;6.25;;;20.50;99.90;;;;;;5097218;28;20224;-64
2022/05/04 09:45:16;;;;;;;9.05;6.32;;;20.80;99.90;;;;;;5097466;28;20220;-64
2022/05/04 09:47:45;;;;;;;10.60;6.80;;;21.20;99.90;;;;;;5097475;28;20192;-65
2022/05/04 09:50:17;;;;;;;8.98;5.88;;;21.40;99.90;;;;;;5098257;28;20232;-65
2022/05/04 09:52:49;;;;;;;9.85;6.50;;;21.50;99.90;;;;;;5096797;28;20196;-64
2022/05/04 09:55:21;;;;;;;8.60;6.30;;;21.70;99.90;;;;;;5096781;28;20205;-64
2022/05/04 09:57:48;;;;;;;10.32;6.30;;;21.70;99.90;;;;;;5098570;28;20204;-64
2022/05/04 10:00:19;;;;;;;9.40;6.47;;;21.80;99.90;;;;;;5096676;28;20686;-64
2022/05/04 10:02:46;;;;;;;12.18;6.43;;;22.00;99.90;;;;;;5097958;28;20204;-65
2022/05/04 10:05:14;;;;;;;9.50;6.68;;;21.90;99.90;;;;;;5088562;28;20308;-65
2022/05/04 10:07:42;;;;;;;8.90;6.03;;;22.00;99.90;;;;;;5086997;28;20479;-64
2022/05/04 10:10:11;;;;;;;9.45;5.75;;;22.00;99.90;;;;;;5085258;28;20197;-64
2022/05/04 10:12:41;;;;;;;8.90;6.13;;;22.20;99.90;;;;;;5085061;28;20286;-64
2022/05/04 10:15:13;;;;;;;10.65;6.50;;;22.40;99.90;;;;;;5084693;28;20213;-64
2022/05/04 10:18:04;;;;;;;8.88;6.93;;;22.60;99.90;;;;;;5096036;28;20216;-64
2022/05/04 10:20:35;;;;;;;11.02;6.47;;;22.80;99.90;;;;;;5090153;28;20223;-64
2022/05/04 10:23:02;;;;;;;12.05;6.78;;;22.80;99.90;;;;;;5095538;28;20204;-64
2022/05/04 10:25:34;;;;;;;10.90;6.50;;;23.00;99.90;;;;;;5082984;28;20626;-64
2022/05/04 10:28:09;;;;;;;7.85;6.55;;;23.20;99.90;;;;;;5083563;28;20209;-64
2022/05/04 10:30:46;;;;;;;8.57;6.43;;;23.20;99.90;;;;;;5084548;28;20541;-65
2022/05/04 10:33:14;;;;;;;7.72;6.15;;;23.40;99.90;;;;;;5081216;28;20208;-65
2022/05/04 10:35:42;;;;;;;8.60;6.50;;;23.50;99.90;;;;;;5084079;28;20218;-65
2022/05/04 10:38:29;;;;;;;12.10;7.25;;;23.70;99.90;;;;;;5093612;28;20189;-65
2022/05/04 10:41:06;;;;;;;10.80;6.72;;;23.80;99.90;;;;;;5085740;28;20201;-65
2022/05/04 10:43:37;;;;;;;10.90;6.70;;;23.80;99.90;;;;;;5080168;28;20196;-65
2022/05/04 10:46:12;;;;;;;7.75;5.93;;;23.80;99.90;;;;;;5080049;28;20202;-65
2022/05/04 10:48:57;;;;;;;8.82;6.80;;;23.60;99.90;;;;;;5077791;28;20582;-65
2022/05/04 10:51:27;;;;;;;10.40;6.60;;;23.30;99.90;;;;;;5081808;28;20207;-65
2022/05/04 10:54:03;;;;;;;8.00;5.95;;;23.40;99.90;;;;;;5085085;28;20236;-65
2022/05/04 10:56:44;;;;;;;9.88;6.40;;;23.40;99.90;;;;;;5081713;28;20233;-64
2022/05/04 10:59:13;;;;;;;8.07;6.85;;;23.60;99.90;;;;;;5079636;28;20206;-65
2022/05/04 11:01:40;;;;;;;11.52;6.72;;;23.60;99.90;;;;;;5083495;28;20205;-64
2022/05/04 11:04:10;;;;;;;7.50;6.38;;;23.70;99.90;;;;;;5092402;28;20217;-64
2022/05/04 11:06:39;;;;;;;8.73;6.22;;;24.00;99.90;;;;;;5090951;28;20192;-64
2022/05/04 11:09:14;;;;;;;8.35;6.00;;;24.40;99.90;;;;;;5099923;28;20205;-64
2022/05/04 11:11:49;;;;;;;9.68;6.22;;;24.20;99.90;;;;;;5102979;28;20197;-66
2022/05/04 11:14:18;;;;;;;8.00;6.35;;;24.40;99.90;;;;;;5103330;28;20299;-64
2022/05/04 11:16:45;;;;;;;7.88;6.55;;;24.60;99.90;;;;;;5101502;28;20405;-64
2022/05/04 11:19:14;;;;;;;9.93;6.82;;;25.00;99.90;;;;;;5098187;28;20189;-65
2022/05/04 11:21:42;;;;;;;7.60;5.97;;;24.80;99.90;;;;;;5102007;28;20197;-65
2022/05/04 11:24:13;;;;;;;8.50;5.95;;;25.20;99.90;;;;;;5097320;28;20736;-65
2022/05/04 11:26:45;;;;;;;6.97;5.28;;;24.90;99.90;;;;;;5099723;28;20208;-65
2022/05/04 11:29:12;;;;;;;8.50;6.25;;;25.10;99.90;;;;;;5104077;28;20580;-65
2022/05/04 11:31:43;;;;;;;6.45;5.20;;;25.40;99.90;;;;;;5100411;28;20206;-65
2022/05/04 11:34:14;;;;;;;7.85;5.63;;;25.50;99.90;;;;;;5103210;28;20221;-65
2022/05/04 11:36:46;;;;;;;8.57;5.65;;;25.70;99.90;;;;;;5099318;28;20205;-65
2022/05/04 11:39:17;;;;;;;9.40;5.78;;;25.80;99.90;;;;;;5103960;28;20643;-64
2022/05/04 11:41:48;;;;;;;7.82;5.82;;;25.00;99.90;;;;;;5101631;28;20204;-65
2022/05/04 11:44:23;;;;;;;8.13;5.78;;;24.40;99.90;;;;;;5099460;28;20217;-64
2022/05/04 11:46:53;;;;;;;7.38;5.22;;;24.40;99.90;;;;;;5100388;28;20561;-65
2022/05/04 11:49:25;;;;;;;6.03;4.80;;;24.40;99.90;;;;;;5098857;28;20212;-65
2022/05/04 11:51:53;;;;;;;6.57;4.90;;;24.40;99.90;;;;;;5102638;28;20209;-65
2022/05/04 11:54:20;;;;;;;5.20;4.45;;;24.20;99.90;;;;;;5097939;28;20237;-65
2022/05/04 11:56:47;;;;;;;5.75;4.72;;;24.30;99.90;;;;;;5096165;28;20283;-65
2022/05/04 11:59:15;;;;;;;6.82;4.47;;;24.40;99.90;;;;;;5098644;28;20188;-65
2022/05/04 12:01:43;;;;;;;5.00;4.47;;;24.50;99.90;;;;;;5101171;28;20193;-65
2022/05/04 12:04:12;;;;;;;9.98;5.25;;;24.80;99.90;;;;;;5100131;28;20221;-65
2022/05/04 12:06:41;;;;;;;5.90;5.03;;;25.10;99.90;;;;;;5100690;28;20194;-65
2022/05/04 12:09:15;;;;;;;6.78;4.97;;;25.00;99.90;;;;;;5101486;28;20564;-64
2022/05/04 12:11:42;;;;;;;7.18;4.78;;;24.60;99.90;;;;;;5100976;28;20201;-64
2022/05/04 12:14:09;;;;;;;11.30;5.72;;;24.40;99.90;;;;;;5102086;28;20225;-64
2022/05/04 12:16:37;;;;;;;9.88;5.53;;;24.10;99.90;;;;;;5094088;28;20201;-64
2022/05/04 12:19:04;;;;;;;8.63;4.82;;;23.90;99.90;;;;;;5102486;28;20193;-64
2022/05/04 12:21:30;;;;;;;8.95;5.60;;;23.80;99.90;;;;;;5103268;28;20375;-64
2022/05/04 12:23:57;;;;;;;7.20;5.07;;;23.70;99.90;;;;;;5098986;28;21246;-64
2022/05/04 12:26:24;;;;;;;7.25;5.05;;;23.60;99.90;;;;;;5098903;28;20197;-64
2022/05/04 12:34:25;;;;;;;9.27;5.72;;;24.10;99.90;;;;;;5100759;28;20251;-64
2022/05/04 12:36:56;;;;;;;8.60;5.43;;;24.20;99.90;;;;;;5102647;28;20192;-64
2022/05/04 12:39:23;;;;;;;6.65;4.97;;;24.30;99.90;;;;;;5100402;28;20544;-64
2022/05/04 12:41:57;;;;;;;7.70;5.00;;;24.40;99.90;;;;;;5101045;28;20201;-64
2022/05/04 12:44:24;;;;;;;7.43;5.53;;;24.60;99.90;;;;;;5102222;28;20225;-64
2022/05/04 12:46:57;;;;;;;6.97;4.82;;;24.60;99.90;;;;;;5097972;28;20201;-64
2022/05/04 12:49:25;;;;;;;11.30;5.30;;;24.60;99.90;;;;;;5099101;28;20248;-64
2022/05/04 12:51:52;;;;;;;7.50;5.53;;;24.50;99.90;;;;;;5099522;28;20216;-65
2022/05/04 12:54:19;;;;;;;7.35;4.63;;;24.60;99.90;;;;;;5099787;28;20216;-64
2022/05/04 12:56:47;;;;;;;7.53;4.95;;;25.00;99.90;;;;;;5102186;28;20655;-64
2022/05/04 12:59:15;;;;;;;8.20;4.97;;;25.20;99.90;;;;;;5099066;28;20250;-65
2022/05/04 13:01:42;;;;;;;7.95;5.00;;;25.60;99.90;;;;;;5097616;28;20206;-64
2022/05/04 13:04:09;;;;;;;6.43;4.45;;;25.90;99.90;;;;;;5102045;28;20249;-65
2022/05/04 13:06:36;;;;;;;6.43;4.90;;;25.90;99.90;;;;;;5101154;28;20204;-65
2022/05/04 13:09:03;;;;;;;5.28;4.40;;;25.60;99.90;;;;;;5098174;28;20196;-65
2022/05/04 13:11:31;;;;;;;6.18;4.70;;;25.60;99.90;;;;;;5097594;28;20219;-64
2022/05/04 13:13:58;;;;;;;5.63;4.07;;;25.80;99.90;;;;;;5102110;28;20632;-65
2022/05/04 13:16:30;;;;;;;5.05;4.50;;;25.80;99.90;;;;;;5101404;28;20200;-65
2022/05/04 13:18:57;;;;;;;7.75;5.57;;;25.20;99.90;;;;;;5100880;28;20228;-64
2022/05/04 13:21:25;;;;;;;7.97;5.25;;;25.00;99.90;;;;;;5097464;28;20200;-64
2022/05/04 13:23:59;;;;;;;5.05;4.55;;;25.10;99.90;;;;;;5096015;28;20311;-64
2022/05/04 13:26:25;;;;;;;6.22;5.43;;;24.80;99.90;;;;;;5100733;28;20590;-64
2022/05/04 13:28:53;;;;;;;6.38;4.70;;;24.40;99.90;;;;;;5097747;28;20844;-64